Terminal Aerodrome Forecast
Issued by NWS

Home | Current Version | Previous Version | Text Only | Print | Product List | Glossary On
Versions: 1 2 3 4 5 6 7 8 9 10 11 12 13 14 15 16 17 18 19 20 21
990
FTUS44 KTSA 221100
TAFFYV
TAF
KFYV 221131Z 2212/2312 00000KT P6SM SCT250
     FM221500 15008KT P6SM SCT250
     FM230000 13003KT P6SM OVC100 PROB30 2306/2312 3SM TSRA
      BKN030CB=

USA.gov is the U.S. government's official web portal to all federal, state and local government web resources and services.